sensor_id;sensor_type;location;lat;lon;timestamp;pressure;altitude;pressure_sealevel;temperature;humidity
76137;BME280;68622;53.128;17.966;2023-03-21T00:01:01;101175.98;;;8.50;72.16
76137;BME280;68622;53.128;17.966;2023-03-21T00:03:32;101174.63;;;8.52;71.56
76137;BME280;68622;53.128;17.966;2023-03-21T00:06:07;101169.90;;;8.52;71.82
76137;BME280;68622;53.128;17.966;2023-03-21T00:08:34;101169.65;;;8.51;72.23
76137;BME280;68622;53.128;17.966;2023-03-21T00:11:03;101164.65;;;8.51;71.74
76137;BME280;68622;53.128;17.966;2023-03-21T00:13:31;101163.71;;;8.52;71.80
76137;BME280;68622;53.128;17.966;2023-03-21T00:16:06;101167.89;;;8.54;71.85
76137;BME280;68622;53.128;17.966;2023-03-21T00:18:33;101165.24;;;8.54;71.71
76137;BME280;68622;53.128;17.966;2023-03-21T00:21:03;101167.11;;;8.55;71.53
76137;BME280;68622;53.128;17.966;2023-03-21T00:23:32;101164.13;;;8.53;71.54
76137;BME280;68622;53.128;17.966;2023-03-21T00:25:59;101162.94;;;8.53;71.73
76137;BME280;68622;53.128;17.966;2023-03-21T00:28:26;101161.69;;;8.51;71.34
76137;BME280;68622;53.128;17.966;2023-03-21T00:30:57;101157.45;;;8.50;71.73
76137;BME280;68622;53.128;17.966;2023-03-21T00:33:25;101158.37;;;8.49;71.63
76137;BME280;68622;53.128;17.966;2023-03-21T00:35:52;101155.08;;;8.49;71.43
76137;BME280;68622;53.128;17.966;2023-03-21T00:38:20;101155.07;;;8.52;71.34
76137;BME280;68622;53.128;17.966;2023-03-21T00:40:47;101153.01;;;8.52;71.74
76137;BME280;68622;53.128;17.966;2023-03-21T00:43:15;101153.64;;;8.50;71.76
76137;BME280;68622;53.128;17.966;2023-03-21T00:45:50;101147.87;;;8.48;71.81
76137;BME280;68622;53.128;17.966;2023-03-21T00:48:17;101150.46;;;8.49;71.65
76137;BME280;68622;53.128;17.966;2023-03-21T00:50:45;101152.45;;;8.50;71.77
76137;BME280;68622;53.128;17.966;2023-03-21T00:53:13;101150.40;;;8.49;71.97
76137;BME280;68622;53.128;17.966;2023-03-21T00:55:40;101153.34;;;8.49;72.41
76137;BME280;68622;53.128;17.966;2023-03-21T00:58:07;101155.08;;;8.47;72.41
76137;BME280;68622;53.128;17.966;2023-03-21T01:00:34;101152.67;;;8.42;73.08
76137;BME280;68622;53.128;17.966;2023-03-21T01:03:06;101152.94;;;8.38;72.74
76137;BME280;68622;53.128;17.966;2023-03-21T01:05:46;101153.42;;;8.38;71.74
76137;BME280;68622;53.128;17.966;2023-03-21T01:08:34;101151.48;;;8.42;71.95
76137;BME280;68622;53.128;17.966;2023-03-21T01:11:06;101151.02;;;8.41;72.49
76137;BME280;68622;53.128;17.966;2023-03-21T01:13:33;101149.90;;;8.40;72.65
76137;BME280;68622;53.128;17.966;2023-03-21T01:16:00;101147.94;;;8.37;72.76
76137;BME280;68622;53.128;17.966;2023-03-21T01:18:28;101146.90;;;8.35;73.13
76137;BME280;68622;53.128;17.966;2023-03-21T01:20:57;101148.42;;;8.36;72.71
76137;BME280;68622;53.128;17.966;2023-03-21T01:23:26;101148.63;;;8.36;72.64
76137;BME280;68622;53.128;17.966;2023-03-21T01:25:55;101150.73;;;8.37;72.70
76137;BME280;68622;53.128;17.966;2023-03-21T01:28:25;101149.32;;;8.38;72.46
76137;BME280;68622;53.128;17.966;2023-03-21T01:30:54;101147.19;;;8.39;72.78
76137;BME280;68622;53.128;17.966;2023-03-21T01:33:21;101140.25;;;8.39;72.78
76137;BME280;68622;53.128;17.966;2023-03-21T01:35:49;101141.77;;;8.39;72.90
76137;BME280;68622;53.128;17.966;2023-03-21T01:38:15;101138.52;;;8.39;72.79
76137;BME280;68622;53.128;17.966;2023-03-21T01:40:44;101139.09;;;8.36;73.06
76137;BME280;68622;53.128;17.966;2023-03-21T01:43:29;101137.76;;;8.33;73.81
76137;BME280;68622;53.128;17.966;2023-03-21T01:49:18;101137.53;;;8.31;73.96
76137;BME280;68622;53.128;17.966;2023-03-21T01:51:53;101137.67;;;8.31;73.69
76137;BME280;68622;53.128;17.966;2023-03-21T01:54:26;101139.16;;;8.29;73.41
76137;BME280;68622;53.128;17.966;2023-03-21T01:56:56;101139.48;;;8.30;73.37
76137;BME280;68622;53.128;17.966;2023-03-21T02:02:18;101144.23;;;8.29;73.65
76137;BME280;68622;53.128;17.966;2023-03-21T02:04:57;101145.22;;;8.29;73.33
76137;BME280;68622;53.128;17.966;2023-03-21T02:07:30;101148.73;;;8.29;73.33
76137;BME280;68622;53.128;17.966;2023-03-21T02:10:06;101150.05;;;8.27;73.50
76137;BME280;68622;53.128;17.966;2023-03-21T02:12:35;101147.94;;;8.25;73.47
76137;BME280;68622;53.128;17.966;2023-03-21T02:15:05;101151.85;;;8.27;73.47
76137;BME280;68622;53.128;17.966;2023-03-21T02:17:56;101149.11;;;8.26;73.51
76137;BME280;68622;53.128;17.966;2023-03-21T02:27:01;101149.38;;;8.25;73.89
76137;BME280;68622;53.128;17.966;2023-03-21T02:33:00;101142.94;;;8.21;73.64
76137;BME280;68622;53.128;17.966;2023-03-21T02:35:59;101142.38;;;8.17;73.67
76137;BME280;68622;53.128;17.966;2023-03-21T02:39:00;101144.65;;;8.16;73.10
76137;BME280;68622;53.128;17.966;2023-03-21T02:42:04;101144.42;;;8.14;73.20
76137;BME280;68622;53.128;17.966;2023-03-21T02:44:44;101146.33;;;8.12;73.49
76137;BME280;68622;53.128;17.966;2023-03-21T02:47:23;101144.54;;;8.10;73.19
76137;BME280;68622;53.128;17.966;2023-03-21T02:49:57;101143.69;;;8.10;72.81
76137;BME280;68622;53.128;17.966;2023-03-21T02:52:31;101142.34;;;8.07;73.06
76137;BME280;68622;53.128;17.966;2023-03-21T02:55:00;101138.00;;;8.03;73.47
76137;BME280;68622;53.128;17.966;2023-03-21T02:57:33;101137.80;;;8.00;72.98
76137;BME280;68622;53.128;17.966;2023-03-21T03:00:01;101139.36;;;7.98;73.16
76137;BME280;68622;53.128;17.966;2023-03-21T03:02:36;101140.54;;;7.96;73.44
76137;BME280;68622;53.128;17.966;2023-03-21T03:05:16;101139.45;;;7.96;73.42
76137;BME280;68622;53.128;17.966;2023-03-21T03:10:55;101145.02;;;7.94;73.39
76137;BME280;68622;53.128;17.966;2023-03-21T03:13:34;101143.61;;;7.92;73.53
76137;BME280;68622;53.128;17.966;2023-03-21T03:18:59;101147.79;;;7.91;73.16
76137;BME280;68622;53.128;17.966;2023-03-21T03:21:41;101147.56;;;7.92;73.38
76137;BME280;68622;53.128;17.966;2023-03-21T03:27:05;101150.48;;;7.90;73.39
76137;BME280;68622;53.128;17.966;2023-03-21T03:29:37;101154.16;;;7.89;73.03
76137;BME280;68622;53.128;17.966;2023-03-21T03:32:15;101149.27;;;7.87;73.21
76137;BME280;68622;53.128;17.966;2023-03-21T03:34:48;101151.08;;;7.88;72.91
76137;BME280;68622;53.128;17.966;2023-03-21T03:37:20;101149.16;;;7.89;73.06
76137;BME280;68622;53.128;17.966;2023-03-21T03:42:33;101145.58;;;7.88;73.00
76137;BME280;68622;53.128;17.966;2023-03-21T03:45:08;101143.07;;;7.87;72.90
76137;BME280;68622;53.128;17.966;2023-03-21T03:48:06;101143.67;;;7.86;72.85
76137;BME280;68622;53.128;17.966;2023-03-21T03:50:51;101144.38;;;7.86;73.17
76137;BME280;68622;53.128;17.966;2023-03-21T03:53:24;101147.17;;;7.88;72.87
76137;BME280;68622;53.128;17.966;2023-03-21T03:55:55;101147.06;;;7.89;72.91
76137;BME280;68622;53.128;17.966;2023-03-21T03:58:24;101152.52;;;7.90;73.00
76137;BME280;68622;53.128;17.966;2023-03-21T04:00:53;101152.25;;;7.89;73.22
76137;BME280;68622;53.128;17.966;2023-03-21T04:03:20;101146.27;;;7.88;72.83
76137;BME280;68622;53.128;17.966;2023-03-21T04:05:48;101150.05;;;7.86;72.80
76137;BME280;68622;53.128;17.966;2023-03-21T04:08:15;101152.21;;;7.85;72.77
76137;BME280;68622;53.128;17.966;2023-03-21T04:10:44;101154.20;;;7.84;72.79
76137;BME280;68622;53.128;17.966;2023-03-21T04:13:11;101156.11;;;7.84;72.91
76137;BME280;68622;53.128;17.966;2023-03-21T04:16:04;101156.29;;;7.81;73.16
76137;BME280;68622;53.128;17.966;2023-03-21T04:18:32;101152.54;;;7.78;72.94
76137;BME280;68622;53.128;17.966;2023-03-21T04:20:59;101154.09;;;7.76;73.23
76137;BME280;68622;53.128;17.966;2023-03-21T04:23:28;101158.01;;;7.74;73.05
76137;BME280;68622;53.128;17.966;2023-03-21T04:25:55;101160.34;;;7.72;73.19
76137;BME280;68622;53.128;17.966;2023-03-21T04:28:22;101162.09;;;7.72;73.38
76137;BME280;68622;53.128;17.966;2023-03-21T04:31:11;101160.67;;;7.72;73.48
76137;BME280;68622;53.128;17.966;2023-03-21T04:33:44;101162.14;;;7.71;73.86
76137;BME280;68622;53.128;17.966;2023-03-21T04:36:13;101161.33;;;7.71;73.56
76137;BME280;68622;53.128;17.966;2023-03-21T04:38:53;101164.04;;;7.69;73.62
76137;BME280;68622;53.128;17.966;2023-03-21T04:41:22;101169.70;;;7.67;73.93
76137;BME280;68622;53.128;17.966;2023-03-21T04:43:49;101171.83;;;7.66;73.98
76137;BME280;68622;53.128;17.966;2023-03-21T04:46:19;101168.35;;;7.67;74.16
76137;BME280;68622;53.128;17.966;2023-03-21T04:48:49;101169.53;;;7.67;73.74
76137;BME280;68622;53.128;17.966;2023-03-21T04:51:16;101169.20;;;7.67;73.82
76137;BME280;68622;53.128;17.966;2023-03-21T04:53:42;101167.46;;;7.67;74.05
76137;BME280;68622;53.128;17.966;2023-03-21T04:56:13;101166.27;;;7.64;74.52
76137;BME280;68622;53.128;17.966;2023-03-21T04:58:40;101164.81;;;7.62;73.79
76137;BME280;68622;53.128;17.966;2023-03-21T05:01:07;101168.61;;;7.62;73.93
76137;BME280;68622;53.128;17.966;2023-03-21T05:03:34;101175.34;;;7.65;74.44
76137;BME280;68622;53.128;17.966;2023-03-21T05:06:08;101172.40;;;7.68;73.71
76137;BME280;68622;53.128;17.966;2023-03-21T05:08:35;101171.91;;;7.70;73.79
76137;BME280;68622;53.128;17.966;2023-03-21T05:11:03;101172.98;;;7.72;73.88
76137;BME280;68622;53.128;17.966;2023-03-21T05:13:30;101172.34;;;7.74;73.88
76137;BME280;68622;53.128;17.966;2023-03-21T05:15:56;101172.92;;;7.73;73.92
76137;BME280;68622;53.128;17.966;2023-03-21T05:18:24;101177.40;;;7.76;73.41
76137;BME280;68622;53.128;17.966;2023-03-21T05:21:00;101177.52;;;7.79;73.44
76137;BME280;68622;53.128;17.966;2023-03-21T05:23:26;101180.61;;;7.81;73.38
76137;BME280;68622;53.128;17.966;2023-03-21T05:25:57;101179.40;;;7.81;74.03
76137;BME280;68622;53.128;17.966;2023-03-21T05:28:38;101179.30;;;7.83;73.79
76137;BME280;68622;53.128;17.966;2023-03-21T05:31:06;101182.80;;;7.85;73.34
76137;BME280;68622;53.128;17.966;2023-03-21T05:33:32;101187.63;;;7.85;73.60
76137;BME280;68622;53.128;17.966;2023-03-21T05:35:59;101192.48;;;7.85;73.24
76137;BME280;68622;53.128;17.966;2023-03-21T05:38:29;101196.12;;;7.84;73.82
76137;BME280;68622;53.128;17.966;2023-03-21T05:40:56;101193.52;;;7.89;73.25
76137;BME280;68622;53.128;17.966;2023-03-21T05:43:23;101196.77;;;7.92;73.26
76137;BME280;68622;53.128;17.966;2023-03-21T05:45:51;101200.19;;;7.95;73.11
76137;BME280;68622;53.128;17.966;2023-03-21T05:48:18;101203.10;;;8.01;73.00
76137;BME280;68622;53.128;17.966;2023-03-21T05:50:57;101205.83;;;8.04;73.12
76137;BME280;68622;53.128;17.966;2023-03-21T05:53:24;101208.23;;;8.06;72.96
76137;BME280;68622;53.128;17.966;2023-03-21T05:55:50;101209.54;;;8.10;72.99
76137;BME280;68622;53.128;17.966;2023-03-21T05:58:32;101213.59;;;8.18;72.90
76137;BME280;68622;53.128;17.966;2023-03-21T06:00:59;101213.15;;;8.25;72.74
76137;BME280;68622;53.128;17.966;2023-03-21T06:03:29;101211.98;;;8.29;72.78
76137;BME280;68622;53.128;17.966;2023-03-21T06:06:05;101214.05;;;8.39;72.74
76137;BME280;68622;53.128;17.966;2023-03-21T06:08:35;101208.86;;;8.42;72.83
76137;BME280;68622;53.128;17.966;2023-03-21T06:11:02;101214.22;;;8.45;72.65
76137;BME280;68622;53.128;17.966;2023-03-21T06:13:30;101213.27;;;8.46;72.30
76137;BME280;68622;53.128;17.966;2023-03-21T06:15:58;101216.61;;;8.52;72.19
76137;BME280;68622;53.128;17.966;2023-03-21T06:18:25;101220.17;;;8.55;72.20
76137;BME280;68622;53.128;17.966;2023-03-21T06:20:57;101223.23;;;8.58;72.15
76137;BME280;68622;53.128;17.966;2023-03-21T06:23:24;101223.98;;;8.62;72.13
76137;BME280;68622;53.128;17.966;2023-03-21T06:25:51;101228.23;;;8.63;71.96
76137;BME280;68622;53.128;17.966;2023-03-21T06:28:18;101230.52;;;8.58;72.23
76137;BME280;68622;53.128;17.966;2023-03-21T06:30:44;101234.38;;;8.60;72.22
76137;BME280;68622;53.128;17.966;2023-03-21T06:33:15;101235.09;;;8.64;72.09
76137;BME280;68622;53.128;17.966;2023-03-21T06:35:42;101236.70;;;8.63;71.85
76137;BME280;68622;53.128;17.966;2023-03-21T06:38:10;101238.35;;;8.62;72.03
76137;BME280;68622;53.128;17.966;2023-03-21T06:40:37;101239.50;;;8.63;72.09
76137;BME280;68622;53.128;17.966;2023-03-21T06:43:04;101243.08;;;8.66;72.09
76137;BME280;68622;53.128;17.966;2023-03-21T06:45:31;101243.23;;;8.69;71.78
76137;BME280;68622;53.128;17.966;2023-03-21T06:47:58;101243.99;;;8.68;71.81
76137;BME280;68622;53.128;17.966;2023-03-21T06:50:41;101245.34;;;8.68;71.61
76137;BME280;68622;53.128;17.966;2023-03-21T06:53:08;101246.23;;;8.65;71.73
76137;BME280;68622;53.128;17.966;2023-03-21T06:55:49;101249.98;;;8.64;71.79
76137;BME280;68622;53.128;17.966;2023-03-21T06:58:17;101252.81;;;8.65;71.53
76137;BME280;68622;53.128;17.966;2023-03-21T07:00:44;101252.91;;;8.66;71.70
76137;BME280;68622;53.128;17.966;2023-03-21T07:03:11;101255.30;;;8.67;71.69
76137;BME280;68622;53.128;17.966;2023-03-21T07:05:39;101262.50;;;8.67;71.47
76137;BME280;68622;53.128;17.966;2023-03-21T07:08:07;101262.56;;;8.71;71.18
76137;BME280;68622;53.128;17.966;2023-03-21T07:10:38;101263.42;;;8.74;70.79
76137;BME280;68622;53.128;17.966;2023-03-21T07:13:05;101265.92;;;8.75;70.99
76137;BME280;68622;53.128;17.966;2023-03-21T07:15:41;101272.75;;;8.81;70.56
76137;BME280;68622;53.128;17.966;2023-03-21T07:18:08;101271.85;;;8.87;70.34
76137;BME280;68622;53.128;17.966;2023-03-21T07:20:35;101273.66;;;8.90;70.34
76137;BME280;68622;53.128;17.966;2023-03-21T07:23:05;101272.34;;;9.01;69.81
76137;BME280;68622;53.128;17.966;2023-03-21T07:25:32;101275.27;;;9.04;69.35
76137;BME280;68622;53.128;17.966;2023-03-21T07:27:59;101278.14;;;9.07;69.44
76137;BME280;68622;53.128;17.966;2023-03-21T07:30:27;101278.70;;;9.06;69.53
76137;BME280;68622;53.128;17.966;2023-03-21T07:32:54;101281.52;;;9.08;69.66
76137;BME280;68622;53.128;17.966;2023-03-21T07:35:21;101282.06;;;9.12;69.18
76137;BME280;68622;53.128;17.966;2023-03-21T07:37:47;101285.51;;;9.18;68.82
76137;BME280;68622;53.128;17.966;2023-03-21T07:40:16;101288.79;;;9.27;68.94
76137;BME280;68622;53.128;17.966;2023-03-21T07:42:43;101285.09;;;9.33;68.82
76137;BME280;68622;53.128;17.966;2023-03-21T07:45:12;101282.63;;;9.38;67.68
76137;BME280;68622;53.128;17.966;2023-03-21T07:47:43;101287.30;;;9.42;68.01
76137;BME280;68622;53.128;17.966;2023-03-21T07:50:10;101290.44;;;9.47;68.08
76137;BME280;68622;53.128;17.966;2023-03-21T07:52:36;101288.31;;;9.45;67.43
76137;BME280;68622;53.128;17.966;2023-03-21T07:55:04;101290.92;;;9.49;67.97
76137;BME280;68622;53.128;17.966;2023-03-21T07:57:31;101291.02;;;9.53;67.35
76137;BME280;68622;53.128;17.966;2023-03-21T07:59:58;101291.13;;;9.63;67.53
76137;BME280;68622;53.128;17.966;2023-03-21T08:02:24;101291.98;;;9.70;67.31
76137;BME280;68622;53.128;17.966;2023-03-21T08:04:51;101293.15;;;9.75;66.84
76137;BME280;68622;53.128;17.966;2023-03-21T08:07:18;101294.27;;;9.79;66.55
76137;BME280;68622;53.128;17.966;2023-03-21T08:09:45;101294.34;;;9.84;66.62
76137;BME280;68622;53.128;17.966;2023-03-21T08:12:11;101295.02;;;9.87;65.88
76137;BME280;68622;53.128;17.966;2023-03-21T08:14:38;101295.14;;;9.90;65.75
76137;BME280;68622;53.128;17.966;2023-03-21T08:17:05;101297.70;;;9.95;65.57
76137;BME280;68622;53.128;17.966;2023-03-21T08:19:32;101297.52;;;9.90;65.64
76137;BME280;68622;53.128;17.966;2023-03-21T08:21:58;101303.98;;;9.90;65.71
76137;BME280;68622;53.128;17.966;2023-03-21T08:24:26;101302.61;;;9.99;65.76
76137;BME280;68622;53.128;17.966;2023-03-21T08:26:53;101301.92;;;10.10;65.49
76137;BME280;68622;53.128;17.966;2023-03-21T08:29:20;101307.55;;;10.18;65.25
76137;BME280;68622;53.128;17.966;2023-03-21T08:31:47;101315.16;;;10.28;64.68
76137;BME280;68622;53.128;17.966;2023-03-21T08:34:14;101318.58;;;10.33;64.77
76137;BME280;68622;53.128;17.966;2023-03-21T08:36:40;101321.75;;;10.34;64.29
76137;BME280;68622;53.128;17.966;2023-03-21T08:39:07;101323.33;;;10.43;64.74
76137;BME280;68622;53.128;17.966;2023-03-21T08:41:35;101326.83;;;10.54;64.45
76137;BME280;68622;53.128;17.966;2023-03-21T08:44:04;101324.15;;;10.68;63.92
76137;BME280;68622;53.128;17.966;2023-03-21T08:46:32;101330.02;;;10.77;63.48
76137;BME280;68622;53.128;17.966;2023-03-21T08:48:59;101331.52;;;10.78;61.58
76137;BME280;68622;53.128;17.966;2023-03-21T08:51:25;101334.13;;;10.86;60.80
76137;BME280;68622;53.128;17.966;2023-03-21T08:53:52;101329.99;;;11.01;60.98
76137;BME280;68622;53.128;17.966;2023-03-21T08:56:19;101331.27;;;11.02;60.40
76137;BME280;68622;53.128;17.966;2023-03-21T08:58:45;101331.36;;;11.03;60.10
76137;BME280;68622;53.128;17.966;2023-03-21T09:01:12;101332.16;;;11.02;59.97
76137;BME280;68622;53.128;17.966;2023-03-21T09:03:42;101336.33;;;10.89;59.39
76137;BME280;68622;53.128;17.966;2023-03-21T09:06:10;101337.12;;;10.81;60.37
76137;BME280;68622;53.128;17.966;2023-03-21T09:08:40;101336.38;;;10.69;60.36
76137;BME280;68622;53.128;17.966;2023-03-21T09:11:11;101340.49;;;10.58;60.44
76137;BME280;68622;53.128;17.966;2023-03-21T09:13:38;101344.08;;;10.57;60.51
76137;BME280;68622;53.128;17.966;2023-03-21T09:16:05;101344.34;;;10.76;61.00
76137;BME280;68622;53.128;17.966;2023-03-21T09:18:31;101342.80;;;10.80;59.88
76137;BME280;68622;53.128;17.966;2023-03-21T09:21:13;101345.28;;;10.88;59.88
76137;BME280;68622;53.128;17.966;2023-03-21T09:23:42;101349.05;;;11.10;59.86
76137;BME280;68622;53.128;17.966;2023-03-21T09:26:11;101349.70;;;11.24;57.26
76137;BME280;68622;53.128;17.966;2023-03-21T09:28:39;101352.84;;;11.40;56.30
76137;BME280;68622;53.128;17.966;2023-03-21T09:31:06;101350.00;;;11.54;56.36
76137;BME280;68622;53.128;17.966;2023-03-21T09:33:37;101353.10;;;11.60;54.62
76137;BME280;68622;53.128;17.966;2023-03-21T09:36:07;101348.94;;;11.67;53.85
76137;BME280;68622;53.128;17.966;2023-03-21T09:38:42;101344.35;;;11.72;52.95
76137;BME280;68622;53.128;17.966;2023-03-21T09:44:07;101348.40;;;11.96;53.55
76137;BME280;68622;53.128;17.966;2023-03-21T09:49:40;101342.70;;;12.12;52.79
76137;BME280;68622;53.128;17.966;2023-03-21T09:52:18;101341.98;;;12.12;52.84
76137;BME280;68622;53.128;17.966;2023-03-21T09:54:46;101347.20;;;12.06;52.42
76137;BME280;68622;53.128;17.966;2023-03-21T09:57:35;101347.33;;;12.05;52.40
76137;BME280;68622;53.128;17.966;2023-03-21T10:00:09;101349.73;;;12.03;51.97
76137;BME280;68622;53.128;17.966;2023-03-21T10:02:45;101346.46;;;11.98;51.05
76137;BME280;68622;53.128;17.966;2023-03-21T10:05:22;101345.76;;;11.99;51.74
76137;BME280;68622;53.128;17.966;2023-03-21T10:07:51;101346.14;;;12.00;51.77
76137;BME280;68622;53.128;17.966;2023-03-21T10:10:24;101344.73;;;12.04;52.35
76137;BME280;68622;53.128;17.966;2023-03-21T10:12:54;101347.16;;;12.04;51.61
76137;BME280;68622;53.128;17.966;2023-03-21T10:15:23;101343.06;;;12.20;51.67
76137;BME280;68622;53.128;17.966;2023-03-21T10:18:04;101343.55;;;12.35;51.57
76137;BME280;68622;53.128;17.966;2023-03-21T10:20:36;101339.66;;;12.47;51.43
76137;BME280;68622;53.128;17.966;2023-03-21T10:23:06;101347.30;;;12.47;50.99
76137;BME280;68622;53.128;17.966;2023-03-21T10:25:36;101343.63;;;12.56;51.70
76137;BME280;68622;53.128;17.966;2023-03-21T10:28:05;101344.90;;;12.71;51.57
76137;BME280;68622;53.128;17.966;2023-03-21T10:30:39;101342.85;;;12.84;51.34
76137;BME280;68622;53.128;17.966;2023-03-21T10:33:13;101345.85;;;12.74;50.33
76137;BME280;68622;53.128;17.966;2023-03-21T10:35:44;101345.27;;;12.65;50.43
76137;BME280;68622;53.128;17.966;2023-03-21T10:38:17;101343.50;;;12.68;51.03
76137;BME280;68622;53.128;17.966;2023-03-21T10:40:45;101348.27;;;12.65;50.91
76137;BME280;68622;53.128;17.966;2023-03-21T10:43:29;101349.41;;;12.68;50.99
76137;BME280;68622;53.128;17.966;2023-03-21T10:45:56;101345.85;;;12.72;50.49
76137;BME280;68622;53.128;17.966;2023-03-21T10:48:23;101339.94;;;12.80;50.06
76137;BME280;68622;53.128;17.966;2023-03-21T10:50:53;101337.75;;;12.95;50.50
76137;BME280;68622;53.128;17.966;2023-03-21T10:53:31;101343.50;;;12.93;49.45
76137;BME280;68622;53.128;17.966;2023-03-21T10:55:59;101340.65;;;13.00;49.57
76137;BME280;68622;53.128;17.966;2023-03-21T10:58:29;101339.44;;;12.95;49.15
76137;BME280;68622;53.128;17.966;2023-03-21T11:01:04;101339.27;;;12.98;48.83
76137;BME280;68622;53.128;17.966;2023-03-21T11:03:36;101340.17;;;12.95;49.06
76137;BME280;68622;53.128;17.966;2023-03-21T11:08:38;101334.86;;;13.08;49.33
76137;BME280;68622;53.128;17.966;2023-03-21T11:11:08;101329.71;;;13.25;49.03
76137;BME280;68622;53.128;17.966;2023-03-21T11:13:43;101327.11;;;13.36;49.39
76137;BME280;68622;53.128;17.966;2023-03-21T11:16:23;101327.95;;;13.23;48.05
76137;BME280;68622;53.128;17.966;2023-03-21T11:18:51;101326.91;;;13.27;48.54
76137;BME280;68622;53.128;17.966;2023-03-21T11:21:21;101321.48;;;13.25;47.37
76137;BME280;68622;53.128;17.966;2023-03-21T11:23:55;101317.75;;;13.20;47.10
76137;BME280;68622;53.128;17.966;2023-03-21T11:26:34;101315.79;;;13.21;47.90
76137;BME280;68622;53.128;17.966;2023-03-21T11:29:37;101314.51;;;13.18;48.21
76137;BME280;68622;53.128;17.966;2023-03-21T11:32:11;101318.87;;;13.12;49.48
76137;BME280;68622;53.128;17.966;2023-03-21T11:34:56;101320.20;;;13.08;49.41
76137;BME280;68622;53.128;17.966;2023-03-21T11:37:52;101319.73;;;12.98;49.85
76137;BME280;68622;53.128;17.966;2023-03-21T11:40:23;101321.79;;;12.96;49.87
76137;BME280;68622;53.128;17.966;2023-03-21T11:42:55;101324.50;;;13.09;50.18
76137;BME280;68622;53.128;17.966;2023-03-21T11:47:55;101324.18;;;13.22;49.85
76137;BME280;68622;53.128;17.966;2023-03-21T11:50:39;101323.83;;;13.26;49.60
76137;BME280;68622;53.128;17.966;2023-03-21T11:58:39;101319.31;;;13.13;49.36
76137;BME280;68622;53.128;17.966;2023-03-21T12:09:54;101306.77;;;12.95;49.59
76137;BME280;68622;53.128;17.966;2023-03-21T12:12:48;101306.66;;;12.98;50.39
76137;BME280;68622;53.128;17.966;2023-03-21T12:15:35;101307.38;;;12.92;50.39
76137;BME280;68622;53.128;17.966;2023-03-21T12:26:05;101306.45;;;12.17;51.51
76137;BME280;68622;53.128;17.966;2023-03-21T12:36:21;101293.73;;;12.05;51.98
76137;BME280;68622;53.128;17.966;2023-03-21T12:44:21;101281.47;;;12.34;50.83
76137;BME280;68622;53.128;17.966;2023-03-21T12:47:06;101280.62;;;12.44;50.17
76137;BME280;68622;53.128;17.966;2023-03-21T12:49:42;101288.73;;;12.55;49.66
76137;BME280;68622;53.128;17.966;2023-03-21T12:54:50;101281.87;;;12.62;49.61
76137;BME280;68622;53.128;17.966;2023-03-21T12:57:21;101280.66;;;12.65;49.04
76137;BME280;68622;53.128;17.966;2023-03-21T13:00:04;101280.37;;;12.71;48.37
76137;BME280;68622;53.128;17.966;2023-03-21T13:02:43;101278.43;;;12.84;49.01
76137;BME280;68622;53.128;17.966;2023-03-21T13:05:27;101274.63;;;12.88;48.53
76137;BME280;68622;53.128;17.966;2023-03-21T13:08:00;101270.29;;;12.92;48.24
76137;BME280;68622;53.128;17.966;2023-03-21T13:10:29;101268.53;;;13.04;48.80
76137;BME280;68622;53.128;17.966;2023-03-21T13:23:59;101259.09;;;13.04;47.06
76137;BME280;68622;53.128;17.966;2023-03-21T13:26:38;101255.91;;;13.05;47.17
76137;BME280;68622;53.128;17.966;2023-03-21T13:29:51;101254.54;;;12.97;46.68
76137;BME280;68622;53.128;17.966;2023-03-21T13:32:27;101249.67;;;12.99;47.72
76137;BME280;68622;53.128;17.966;2023-03-21T13:40:27;101242.79;;;13.11;46.30
76137;BME280;68622;53.128;17.966;2023-03-21T13:42:58;101240.88;;;13.23;46.42
76137;BME280;68622;53.128;17.966;2023-03-21T13:45:44;101237.04;;;13.36;45.90
76137;BME280;68622;53.128;17.966;2023-03-21T13:48:28;101234.59;;;13.37;44.82
76137;BME280;68622;53.128;17.966;2023-03-21T13:53:58;101227.11;;;13.47;46.36
76137;BME280;68622;53.128;17.966;2023-03-21T13:56:27;101226.15;;;13.47;45.83
76137;BME280;68622;53.128;17.966;2023-03-21T13:58:59;101224.64;;;13.59;46.16
76137;BME280;68622;53.128;17.966;2023-03-21T14:01:33;101223.27;;;13.51;45.83
76137;BME280;68622;53.128;17.966;2023-03-21T14:04:17;101226.00;;;13.39;46.04
76137;BME280;68622;53.128;17.966;2023-03-21T14:11:55;101221.13;;;12.91;46.41
76137;BME280;68622;53.128;17.966;2023-03-21T14:14:28;101216.99;;;12.92;46.66
76137;BME280;68622;53.128;17.966;2023-03-21T14:16:56;101212.29;;;13.04;46.63
76137;BME280;68622;53.128;17.966;2023-03-21T14:19:31;101207.59;;;13.09;46.41
76137;BME280;68622;53.128;17.966;2023-03-21T14:21:58;101204.39;;;13.14;46.60
76137;BME280;68622;53.128;17.966;2023-03-21T14:24:25;101204.56;;;12.98;45.94
76137;BME280;68622;53.128;17.966;2023-03-21T14:26:57;101199.19;;;12.89;46.82
76137;BME280;68622;53.128;17.966;2023-03-21T14:29:28;101204.41;;;12.77;47.13
76137;BME280;68622;53.128;17.966;2023-03-21T14:31:56;101204.61;;;12.69;47.01
76137;BME280;68622;53.128;17.966;2023-03-21T14:34:25;101203.11;;;12.63;46.82
76137;BME280;68622;53.128;17.966;2023-03-21T14:36:54;101202.07;;;12.61;46.95
76137;BME280;68622;53.128;17.966;2023-03-21T14:39:22;101200.88;;;12.62;47.23
76137;BME280;68622;53.128;17.966;2023-03-21T14:41:53;101199.29;;;12.61;47.01
76137;BME280;68622;53.128;17.966;2023-03-21T14:44:25;101199.35;;;12.71;47.69
76137;BME280;68622;53.128;17.966;2023-03-21T14:47:05;101197.73;;;12.78;46.84
76137;BME280;68622;53.128;17.966;2023-03-21T14:49:36;101194.92;;;12.88;46.95